WZZ2779 ENBR-EPGD
Flight info
| Callsign | WZZ2779 |
|---|---|
| Flight time | 1h 30m |
| Altitude | 35000 |
| Route | TUXIL DCT ZOL DCT PEVEB DCT AMSEV DCT RUMAR L983 DOMAG T240 OGDAV |
| Aircraft | A21N/M-SDE3FGHIRWY/LB1 |
Departure
| Time | 2026-04-27 18:19 |
|---|---|
| Airport | Bergen Airport, Flesland (ENBR) |
Arrival
| Time | 2026-04-27 19:50 |
|---|---|
| Airport | Gdańsk Lech Wałęsa Airport (EPGD) |
| Time | Latitude | Longitude | Altitude | Speed | Heading |
|---|---|---|---|---|---|
| 2026-04-27 17:37 | 60.29090 | 5.22660 | 175 ft | 0 kts | 30° |
| 2026-04-27 18:04 | 60.29088 | 5.22657 | 175 ft | 2 kts | 30° |
| 2026-04-27 18:04 | 60.29073 | 5.22651 | 174 ft | 2 kts | 351° |
| 2026-04-27 18:05 | 60.29059 | 5.22661 | 175 ft | 2 kts | 322° |
| 2026-04-27 18:05 | 60.29049 | 5.22684 | 175 ft | 2 kts | 293° |
| 2026-04-27 18:05 | 60.29047 | 5.22713 | 176 ft | 2 kts | 273° |
| 2026-04-27 18:05 | 60.29046 | 5.22734 | 176 ft | 0 kts | 279° |
| 2026-04-27 18:06 | 60.29045 | 5.22736 | 176 ft | 0 kts | 280° |
| 2026-04-27 18:10 | 60.29046 | 5.22735 | 176 ft | 0 kts | 280° |
| 2026-04-27 18:10 | 60.29046 | 5.22697 | 175 ft | 4 kts | 267° |
| 2026-04-27 18:10 | 60.29042 | 5.22602 | 173 ft | 8 kts | 263° |
| 2026-04-27 18:10 | 60.29033 | 5.22477 | 171 ft | 9 kts | 257° |
| 2026-04-27 18:11 | 60.28991 | 5.22384 | 169 ft | 10 kts | 186° |
| 2026-04-27 18:11 | 60.28946 | 5.22383 | 169 ft | 2 kts | 196° |
| 2026-04-27 18:11 | 60.28942 | 5.22378 | 169 ft | 0 kts | 215° |
| 2026-04-27 18:12 | 60.28941 | 5.22376 | 169 ft | 0 kts | 215° |
| 2026-04-27 18:12 | 60.28930 | 5.22350 | 168 ft | 4 kts | 234° |
| 2026-04-27 18:12 | 60.28899 | 5.22301 | 167 ft | 7 kts | 199° |
| 2026-04-27 18:12 | 60.28845 | 5.22304 | 167 ft | 8 kts | 170° |
| 2026-04-27 18:13 | 60.28770 | 5.22327 | 167 ft | 13 kts | 171° |
| 2026-04-27 18:13 | 60.28664 | 5.22363 | 165 ft | 17 kts | 169° |
| 2026-04-27 18:13 | 60.28538 | 5.22405 | 161 ft | 19 kts | 170° |
| 2026-04-27 18:13 | 60.28398 | 5.22452 | 156 ft | 21 kts | 170° |
| 2026-04-27 18:14 | 60.28258 | 5.22500 | 153 ft | 19 kts | 170° |
| 2026-04-27 18:14 | 60.28155 | 5.22536 | 152 ft | 8 kts | 171° |
| 2026-04-27 18:14 | 60.28122 | 5.22546 | 150 ft | 0 kts | 172° |
| 2026-04-27 18:16 | 60.28121 | 5.22546 | 150 ft | 1 kts | 172° |
| 2026-04-27 18:16 | 60.28099 | 5.22550 | 150 ft | 5 kts | 182° |
| 2026-04-27 18:16 | 60.28057 | 5.22501 | 147 ft | 9 kts | 240° |
| 2026-04-27 18:16 | 60.28052 | 5.22476 | 145 ft | 0 kts | 255° |
| 2026-04-27 18:17 | 60.28052 | 5.22475 | 145 ft | 0 kts | 255° |
| 2026-04-27 18:17 | 60.28050 | 5.22454 | 144 ft | 5 kts | 260° |
| 2026-04-27 18:18 | 60.28047 | 5.22307 | 135 ft | 14 kts | 287° |
| 2026-04-27 18:18 | 60.28091 | 5.22232 | 134 ft | 0 kts | 349° |
| 2026-04-27 18:18 | 60.28304 | 5.22157 | 143 ft | 66 kts | 350° |
| 2026-04-27 18:19 | 60.28975 | 5.21931 | 162 ft | 127 kts | 349° |
| 2026-04-27 18:19 | 60.30003 | 5.21596 | 224 ft | 169 kts | 349° |
| 2026-04-27 18:19 | 60.31153 | 5.21161 | 804 ft | 170 kts | 349° |
| 2026-04-27 18:19 | 60.32324 | 5.20774 | 1461 ft | 173 kts | 351° |
| 2026-04-27 18:20 | 60.33515 | 5.20398 | 2073 ft | 176 kts | 352° |
| 2026-04-27 18:20 | 60.34763 | 5.20001 | 2381 ft | 189 kts | 352° |
| 2026-04-27 18:20 | 60.36108 | 5.19564 | 2678 ft | 204 kts | 351° |
| 2026-04-27 18:20 | 60.37549 | 5.19088 | 2952 ft | 221 kts | 351° |
| 2026-04-27 18:21 | 60.39134 | 5.18540 | 3223 ft | 239 kts | 350° |
| 2026-04-27 18:21 | 60.40826 | 5.17991 | 3594 ft | 254 kts | 351° |
| 2026-04-27 18:21 | 60.42567 | 5.17409 | 4232 ft | 258 kts | 351° |
| 2026-04-27 18:21 | 60.44328 | 5.16809 | 4998 ft | 259 kts | 351° |
| 2026-04-27 18:22 | 60.46087 | 5.16142 | 5636 ft | 259 kts | 345° |
| 2026-04-27 18:22 | 60.47622 | 5.14344 | 6027 ft | 265 kts | 315° |
| 2026-04-27 18:22 | 60.48573 | 5.11128 | 6749 ft | 271 kts | 289° |
| 2026-04-27 18:22 | 60.48712 | 5.07333 | 7478 ft | 277 kts | 264° |
| 2026-04-27 18:23 | 60.48356 | 5.03488 | 8169 ft | 281 kts | 256° |
| 2026-04-27 18:23 | 60.47433 | 5.00041 | 8770 ft | 290 kts | 227° |
| 2026-04-27 18:23 | 60.45755 | 4.97807 | 9393 ft | 294 kts | 198° |
| 2026-04-27 18:23 | 60.43732 | 4.97365 | 9999 ft | 296 kts | 173° |
| 2026-04-27 18:24 | 60.41705 | 4.97885 | 10614 ft | 298 kts | 172° |
| 2026-04-27 18:24 | 60.39600 | 4.98440 | 10971 ft | 311 kts | 172° |
| 2026-04-27 18:24 | 60.37430 | 4.98962 | 11215 ft | 326 kts | 173° |
| 2026-04-27 18:24 | 60.35115 | 4.99474 | 11480 ft | 341 kts | 173° |
| 2026-04-27 18:25 | 60.32724 | 4.99979 | 11752 ft | 354 kts | 173° |
| 2026-04-27 18:25 | 60.30274 | 5.00485 | 12223 ft | 360 kts | 173° |
| 2026-04-27 18:25 | 60.27788 | 5.01052 | 12811 ft | 363 kts | 171° |
| 2026-04-27 18:25 | 60.25301 | 5.01928 | 13369 ft | 365 kts | 168° |
| 2026-04-27 18:26 | 60.22814 | 5.02914 | 13907 ft | 368 kts | 168° |
| 2026-04-27 18:26 | 60.20288 | 5.03919 | 14489 ft | 371 kts | 168° |
| 2026-04-27 18:26 | 60.17771 | 5.04989 | 15002 ft | 374 kts | 165° |
| 2026-04-27 18:26 | 60.15291 | 5.06431 | 15484 ft | 376 kts | 160° |
| 2026-04-27 18:27 | 60.12842 | 5.08322 | 16009 ft | 378 kts | 155° |
| 2026-04-27 18:27 | 60.10418 | 5.10406 | 16467 ft | 381 kts | 155° |
| 2026-04-27 18:27 | 60.07980 | 5.12522 | 16957 ft | 384 kts | 155° |
| 2026-04-27 18:27 | 60.05545 | 5.14627 | 17417 ft | 387 kts | 155° |
| 2026-04-27 18:28 | 60.03048 | 5.16777 | 17856 ft | 390 kts | 155° |
| 2026-04-27 18:28 | 60.00579 | 5.18892 | 18258 ft | 393 kts | 155° |
| 2026-04-27 18:28 | 59.98069 | 5.21038 | 18720 ft | 395 kts | 155° |
| 2026-04-27 18:28 | 59.95522 | 5.23211 | 19108 ft | 399 kts | 155° |
| 2026-04-27 18:29 | 59.92971 | 5.25384 | 19494 ft | 402 kts | 155° |
| 2026-04-27 18:29 | 59.90415 | 5.27556 | 19882 ft | 405 kts | 155° |
| 2026-04-27 18:29 | 59.87821 | 5.29757 | 20267 ft | 408 kts | 154° |
| 2026-04-27 18:29 | 59.85369 | 5.32579 | 20591 ft | 406 kts | 136° |
| 2026-04-27 18:30 | 59.83580 | 5.36750 | 20977 ft | 402 kts | 121° |
| 2026-04-27 18:30 | 59.82066 | 5.41394 | 21385 ft | 402 kts | 118° |
| 2026-04-27 18:30 | 59.80574 | 5.46076 | 21738 ft | 405 kts | 119° |
| 2026-04-27 18:30 | 59.79022 | 5.50797 | 22115 ft | 408 kts | 120° |
| 2026-04-27 18:31 | 59.77441 | 5.55461 | 22469 ft | 411 kts | 120° |
| 2026-04-27 18:31 | 59.75819 | 5.60136 | 22803 ft | 413 kts | 121° |
| 2026-04-27 18:31 | 59.74195 | 5.64750 | 23115 ft | 416 kts | 121° |
| 2026-04-27 18:31 | 59.72520 | 5.69459 | 23433 ft | 419 kts | 122° |
| 2026-04-27 18:32 | 59.70833 | 5.74174 | 23739 ft | 421 kts | 122° |
| 2026-04-27 18:32 | 59.69141 | 5.78878 | 24066 ft | 423 kts | 122° |
| 2026-04-27 18:32 | 59.67451 | 5.83559 | 24370 ft | 425 kts | 122° |
| 2026-04-27 18:32 | 59.65728 | 5.88319 | 24684 ft | 427 kts | 122° |
| 2026-04-27 18:33 | 59.63996 | 5.93084 | 25007 ft | 428 kts | 122° |
| 2026-04-27 18:33 | 59.62257 | 5.97861 | 25293 ft | 430 kts | 122° |
| 2026-04-27 18:33 | 59.60508 | 6.02655 | 25573 ft | 432 kts | 122° |
| 2026-04-27 18:33 | 59.58775 | 6.07398 | 25860 ft | 434 kts | 122° |
| 2026-04-27 18:34 | 59.57002 | 6.12240 | 26127 ft | 435 kts | 122° |
| 2026-04-27 18:34 | 59.55235 | 6.17060 | 26397 ft | 437 kts | 122° |
| 2026-04-27 18:34 | 59.53446 | 6.21922 | 26646 ft | 439 kts | 122° |
| 2026-04-27 18:34 | 59.51662 | 6.26765 | 26905 ft | 441 kts | 122° |
| 2026-04-27 18:35 | 59.49871 | 6.31617 | 27149 ft | 443 kts | 122° |
| 2026-04-27 18:35 | 59.48046 | 6.36547 | 27397 ft | 444 kts | 122° |
| 2026-04-27 18:35 | 59.46252 | 6.41387 | 27650 ft | 445 kts | 122° |
| 2026-04-27 18:35 | 59.44407 | 6.46354 | 27892 ft | 447 kts | 122° |
| 2026-04-27 18:36 | 59.42583 | 6.51250 | 28114 ft | 449 kts | 122° |
| 2026-04-27 18:36 | 59.40748 | 6.56167 | 28333 ft | 451 kts | 122° |
| 2026-04-27 18:36 | 59.38888 | 6.61141 | 28562 ft | 452 kts | 122° |
| 2026-04-27 18:36 | 59.37042 | 6.66068 | 28766 ft | 454 kts | 123° |
| 2026-04-27 18:37 | 59.35160 | 6.71079 | 28981 ft | 456 kts | 123° |
| 2026-04-27 18:37 | 59.33294 | 6.76040 | 29195 ft | 457 kts | 123° |
| 2026-04-27 18:37 | 59.31425 | 6.80997 | 29415 ft | 458 kts | 123° |
| 2026-04-27 18:37 | 59.29533 | 6.86003 | 29691 ft | 458 kts | 123° |
| 2026-04-27 18:38 | 59.27649 | 6.90974 | 29991 ft | 458 kts | 123° |
| 2026-04-27 18:38 | 59.25767 | 6.95932 | 30297 ft | 457 kts | 123° |
| 2026-04-27 18:38 | 59.23874 | 7.00911 | 30596 ft | 456 kts | 123° |
| 2026-04-27 18:38 | 59.21988 | 7.05863 | 30887 ft | 456 kts | 123° |
| 2026-04-27 18:39 | 59.20092 | 7.10825 | 31163 ft | 455 kts | 123° |
| 2026-04-27 18:39 | 59.18225 | 7.15699 | 31425 ft | 454 kts | 123° |
| 2026-04-27 18:39 | 59.16327 | 7.20648 | 31665 ft | 454 kts | 123° |
| 2026-04-27 18:39 | 59.14444 | 7.25545 | 31905 ft | 454 kts | 123° |
| 2026-04-27 18:40 | 59.12555 | 7.30455 | 32140 ft | 454 kts | 123° |
| 2026-04-27 18:40 | 59.10666 | 7.35354 | 32374 ft | 454 kts | 123° |
| 2026-04-27 18:40 | 59.08789 | 7.40209 | 32611 ft | 454 kts | 123° |
| 2026-04-27 18:40 | 59.06903 | 7.45080 | 32853 ft | 453 kts | 123° |
| 2026-04-27 18:41 | 59.05022 | 7.49920 | 33086 ft | 453 kts | 123° |
| 2026-04-27 18:41 | 59.03127 | 7.54787 | 33310 ft | 453 kts | 123° |
| 2026-04-27 18:41 | 59.01236 | 7.59637 | 33523 ft | 453 kts | 123° |
| 2026-04-27 18:41 | 58.99339 | 7.64494 | 33707 ft | 454 kts | 123° |
| 2026-04-27 18:42 | 58.97445 | 7.69333 | 33872 ft | 455 kts | 124° |
| 2026-04-27 18:42 | 58.96155 | 7.72621 | 33992 ft | 456 kts | 124° |
| 2026-04-27 18:42 | 58.93602 | 7.79120 | 34234 ft | 456 kts | 124° |
| 2026-04-27 18:42 | 58.91703 | 7.83938 | 34411 ft | 457 kts | 124° |
| 2026-04-27 18:43 | 58.89763 | 7.88852 | 34591 ft | 457 kts | 124° |
| 2026-04-27 18:43 | 58.87853 | 7.93681 | 34743 ft | 458 kts | 124° |
| 2026-04-27 18:43 | 58.85910 | 7.98581 | 34855 ft | 460 kts | 124° |
| 2026-04-27 18:43 | 58.83966 | 8.03478 | 34969 ft | 460 kts | 124° |
| 2026-04-27 18:44 | 58.82048 | 8.08296 | 35099 ft | 460 kts | 124° |
| 2026-04-27 18:44 | 58.80103 | 8.13175 | 35186 ft | 461 kts | 124° |
| 2026-04-27 18:44 | 58.76171 | 8.23005 | 35317 ft | 463 kts | 124° |
| 2026-04-27 18:45 | 58.72249 | 8.32764 | 35328 ft | 463 kts | 124° |
| 2026-04-27 18:45 | 58.68313 | 8.42518 | 35331 ft | 464 kts | 124° |
| 2026-04-27 18:46 | 58.64371 | 8.52249 | 35327 ft | 464 kts | 124° |
| 2026-04-27 18:46 | 58.60416 | 8.61973 | 35331 ft | 463 kts | 124° |
| 2026-04-27 18:47 | 58.56452 | 8.71677 | 35330 ft | 463 kts | 125° |
| 2026-04-27 18:47 | 58.52491 | 8.81335 | 35333 ft | 464 kts | 125° |
| 2026-04-27 18:48 | 58.48505 | 8.91013 | 35338 ft | 464 kts | 125° |
| 2026-04-27 18:48 | 58.44539 | 9.00607 | 35341 ft | 463 kts | 125° |
| 2026-04-27 18:49 | 58.40572 | 9.10161 | 35338 ft | 463 kts | 125° |
| 2026-04-27 18:49 | 58.36578 | 9.19741 | 35341 ft | 463 kts | 125° |
| 2026-04-27 18:50 | 58.32583 | 9.29286 | 35349 ft | 463 kts | 125° |
| 2026-04-27 18:50 | 58.28571 | 9.38835 | 35346 ft | 464 kts | 125° |
| 2026-04-27 18:51 | 58.24547 | 9.48370 | 35344 ft | 463 kts | 125° |
| 2026-04-27 18:51 | 58.20526 | 9.57864 | 35341 ft | 464 kts | 125° |
| 2026-04-27 18:52 | 58.16494 | 9.67340 | 35347 ft | 464 kts | 126° |
| 2026-04-27 18:53 | 58.10444 | 9.81494 | 35348 ft | 465 kts | 126° |
| 2026-04-27 18:53 | 58.06367 | 9.90984 | 35350 ft | 464 kts | 126° |
| 2026-04-27 18:54 | 58.02316 | 10.00375 | 35339 ft | 464 kts | 126° |
| 2026-04-27 18:54 | 57.99116 | 10.07766 | 35337 ft | 464 kts | 126° |
| 2026-04-27 18:55 | 57.95203 | 10.16775 | 35346 ft | 464 kts | 126° |
| 2026-04-27 18:55 | 57.91110 | 10.26166 | 35346 ft | 465 kts | 127° |
| 2026-04-27 18:56 | 57.87034 | 10.35477 | 35334 ft | 465 kts | 127° |
| 2026-04-27 18:56 | 57.82936 | 10.44797 | 35335 ft | 465 kts | 127° |
| 2026-04-27 18:56 | 57.80880 | 10.49461 | 35445 ft | 465 kts | 127° |
| 2026-04-27 18:57 | 57.78836 | 10.54086 | 35296 ft | 464 kts | 127° |
| 2026-04-27 18:57 | 57.76766 | 10.58761 | 35405 ft | 465 kts | 127° |
| 2026-04-27 18:57 | 57.74726 | 10.63363 | 35310 ft | 465 kts | 127° |
| 2026-04-27 18:58 | 57.70581 | 10.72687 | 35439 ft | 466 kts | 128° |
| 2026-04-27 18:58 | 57.66474 | 10.81887 | 35358 ft | 465 kts | 128° |
| 2026-04-27 18:59 | 57.62338 | 10.91118 | 35331 ft | 465 kts | 128° |
| 2026-04-27 18:59 | 57.58173 | 11.00369 | 35338 ft | 466 kts | 128° |
| 2026-04-27 19:00 | 57.54027 | 11.09541 | 35344 ft | 466 kts | 128° |
| 2026-04-27 19:00 | 57.49844 | 11.18769 | 35340 ft | 466 kts | 128° |
| 2026-04-27 19:01 | 57.45666 | 11.27945 | 35335 ft | 466 kts | 128° |
| 2026-04-27 19:01 | 57.41506 | 11.37047 | 35328 ft | 465 kts | 128° |
| 2026-04-27 19:02 | 57.37332 | 11.46142 | 35321 ft | 466 kts | 128° |
| 2026-04-27 19:02 | 57.33128 | 11.55270 | 35322 ft | 466 kts | 128° |
| 2026-04-27 19:03 | 57.28920 | 11.64374 | 35328 ft | 467 kts | 128° |
| 2026-04-27 19:03 | 57.24719 | 11.73427 | 35327 ft | 467 kts | 129° |
| 2026-04-27 19:04 | 57.20517 | 11.82445 | 35328 ft | 467 kts | 129° |
| 2026-04-27 19:04 | 57.16266 | 11.91531 | 35329 ft | 467 kts | 129° |
| 2026-04-27 19:05 | 57.12033 | 12.00545 | 35324 ft | 467 kts | 129° |
| 2026-04-27 19:05 | 57.07811 | 12.09506 | 35325 ft | 467 kts | 129° |
| 2026-04-27 19:06 | 57.03560 | 12.18493 | 35315 ft | 468 kts | 129° |
| 2026-04-27 19:06 | 56.99294 | 12.27477 | 35316 ft | 468 kts | 129° |
| 2026-04-27 19:07 | 56.95041 | 12.36396 | 35315 ft | 468 kts | 129° |
| 2026-04-27 19:07 | 56.90767 | 12.45329 | 35314 ft | 468 kts | 129° |
| 2026-04-27 19:08 | 56.86498 | 12.54219 | 35311 ft | 468 kts | 129° |
| 2026-04-27 19:08 | 56.82200 | 12.63132 | 35309 ft | 468 kts | 129° |
| 2026-04-27 19:09 | 56.77896 | 12.72024 | 35310 ft | 469 kts | 130° |
| 2026-04-27 19:09 | 56.73588 | 12.80895 | 35311 ft | 469 kts | 130° |
| 2026-04-27 19:10 | 56.69273 | 12.89746 | 35311 ft | 470 kts | 130° |
| 2026-04-27 19:10 | 56.64943 | 12.98595 | 35301 ft | 471 kts | 130° |
| 2026-04-27 19:11 | 56.60587 | 13.07462 | 35298 ft | 472 kts | 130° |
| 2026-04-27 19:11 | 56.56233 | 13.16291 | 35296 ft | 472 kts | 130° |
| 2026-04-27 19:12 | 56.51879 | 13.25085 | 35291 ft | 472 kts | 130° |
| 2026-04-27 19:12 | 56.47957 | 13.32981 | 35284 ft | 472 kts | 130° |
| 2026-04-27 19:13 | 56.43576 | 13.41770 | 35278 ft | 472 kts | 130° |
| 2026-04-27 19:13 | 56.39177 | 13.50563 | 35276 ft | 472 kts | 130° |
| 2026-04-27 19:14 | 56.34798 | 13.59284 | 35275 ft | 472 kts | 130° |
| 2026-04-27 19:14 | 56.30379 | 13.68052 | 35271 ft | 473 kts | 131° |
| 2026-04-27 19:15 | 56.25982 | 13.76747 | 35267 ft | 474 kts | 131° |
| 2026-04-27 19:15 | 56.21563 | 13.85444 | 35267 ft | 474 kts | 131° |
| 2026-04-27 19:16 | 56.17133 | 13.94139 | 35264 ft | 473 kts | 131° |
| 2026-04-27 19:16 | 56.12693 | 14.02818 | 35263 ft | 473 kts | 131° |
| 2026-04-27 19:17 | 56.08680 | 14.12016 | 35267 ft | 470 kts | 118° |
| 2026-04-27 19:17 | 56.05572 | 14.22201 | 35274 ft | 471 kts | 116° |
| 2026-04-27 19:18 | 56.02461 | 14.32527 | 35282 ft | 473 kts | 116° |
| 2026-04-27 19:18 | 55.99323 | 14.42775 | 35276 ft | 473 kts | 116° |
| 2026-04-27 19:19 | 55.96149 | 14.53033 | 35281 ft | 473 kts | 117° |
| 2026-04-27 19:19 | 55.92974 | 14.63223 | 35282 ft | 474 kts | 117° |
| 2026-04-27 19:20 | 55.89757 | 14.73508 | 35286 ft | 474 kts | 117° |
| 2026-04-27 19:20 | 55.86555 | 14.83692 | 35281 ft | 475 kts | 117° |
| 2026-04-27 19:21 | 55.83326 | 14.93919 | 35279 ft | 475 kts | 117° |
| 2026-04-27 19:21 | 55.80092 | 15.04129 | 35269 ft | 476 kts | 117° |
| 2026-04-27 19:22 | 55.76843 | 15.14335 | 35272 ft | 477 kts | 117° |
| 2026-04-27 19:22 | 55.73592 | 15.24507 | 35267 ft | 478 kts | 117° |
| 2026-04-27 19:23 | 55.70310 | 15.34731 | 35264 ft | 479 kts | 117° |
| 2026-04-27 19:23 | 55.67026 | 15.44914 | 35274 ft | 479 kts | 117° |
| 2026-04-27 19:24 | 55.63724 | 15.55107 | 35275 ft | 479 kts | 117° |
| 2026-04-27 19:24 | 55.60401 | 15.65328 | 35276 ft | 480 kts | 118° |
| 2026-04-27 19:25 | 55.57077 | 15.75507 | 35280 ft | 481 kts | 118° |
| 2026-04-27 19:25 | 55.53727 | 15.85723 | 35278 ft | 481 kts | 118° |
| 2026-04-27 19:26 | 55.50383 | 15.95873 | 35282 ft | 482 kts | 118° |
| 2026-04-27 19:26 | 55.48703 | 16.00959 | 35159 ft | 483 kts | 118° |
| 2026-04-27 19:26 | 55.47028 | 16.06022 | 34952 ft | 481 kts | 118° |
| 2026-04-27 19:26 | 55.45339 | 16.11112 | 34738 ft | 479 kts | 118° |
| 2026-04-27 19:27 | 55.43671 | 16.16132 | 34526 ft | 477 kts | 118° |
| 2026-04-27 19:27 | 55.42017 | 16.21097 | 34279 ft | 475 kts | 118° |
| 2026-04-27 19:27 | 55.40347 | 16.26098 | 34035 ft | 473 kts | 118° |
| 2026-04-27 19:27 | 55.38696 | 16.31033 | 33796 ft | 473 kts | 118° |
| 2026-04-27 19:28 | 55.37020 | 16.36035 | 33545 ft | 473 kts | 118° |
| 2026-04-27 19:28 | 55.35361 | 16.40972 | 33297 ft | 474 kts | 118° |
| 2026-04-27 19:28 | 55.33682 | 16.45961 | 33053 ft | 474 kts | 118° |
| 2026-04-27 19:28 | 55.32022 | 16.50881 | 32807 ft | 475 kts | 118° |
| 2026-04-27 19:29 | 55.30328 | 16.55894 | 32559 ft | 475 kts | 118° |
| 2026-04-27 19:29 | 55.28643 | 16.60870 | 32305 ft | 476 kts | 118° |
| 2026-04-27 19:29 | 55.26955 | 16.65846 | 31927 ft | 476 kts | 120° |
| 2026-04-27 19:29 | 55.25274 | 16.70792 | 31436 ft | 477 kts | 119° |
| 2026-04-27 19:30 | 55.23584 | 16.75749 | 30800 ft | 477 kts | 119° |
| 2026-04-27 19:30 | 55.21892 | 16.80702 | 30099 ft | 478 kts | 119° |
| 2026-04-27 19:30 | 55.20184 | 16.85694 | 29345 ft | 479 kts | 119° |
| 2026-04-27 19:30 | 55.18467 | 16.90696 | 28670 ft | 478 kts | 119° |
| 2026-04-27 19:31 | 55.16777 | 16.95611 | 28187 ft | 473 kts | 119° |
| 2026-04-27 19:31 | 55.15097 | 17.00492 | 27696 ft | 469 kts | 119° |
| 2026-04-27 19:31 | 55.13392 | 17.05330 | 27238 ft | 465 kts | 121° |
| 2026-04-27 19:31 | 55.11572 | 17.09915 | 26860 ft | 464 kts | 124° |
| 2026-04-27 19:32 | 55.09700 | 17.14430 | 26495 ft | 463 kts | 124° |
| 2026-04-27 19:32 | 55.07811 | 17.18968 | 26038 ft | 460 kts | 124° |
| 2026-04-27 19:32 | 55.05938 | 17.23494 | 25286 ft | 462 kts | 124° |
| 2026-04-27 19:32 | 55.04080 | 17.28014 | 24346 ft | 468 kts | 123° |
| 2026-04-27 19:33 | 55.02210 | 17.32580 | 23655 ft | 467 kts | 123° |
| 2026-04-27 19:33 | 55.00952 | 17.35651 | 23278 ft | 464 kts | 123° |
| 2026-04-27 19:33 | 54.98479 | 17.41690 | 22555 ft | 458 kts | 123° |
| 2026-04-27 19:33 | 54.96650 | 17.46156 | 22018 ft | 454 kts | 123° |
| 2026-04-27 19:34 | 54.94812 | 17.50632 | 21453 ft | 451 kts | 123° |
| 2026-04-27 19:34 | 54.93011 | 17.55018 | 20901 ft | 447 kts | 123° |
| 2026-04-27 19:34 | 54.91226 | 17.59356 | 20373 ft | 443 kts | 122° |
| 2026-04-27 19:34 | 54.89440 | 17.63688 | 19834 ft | 440 kts | 122° |
| 2026-04-27 19:35 | 54.87657 | 17.68005 | 19265 ft | 436 kts | 123° |
| 2026-04-27 19:35 | 54.85918 | 17.72208 | 18705 ft | 433 kts | 123° |
| 2026-04-27 19:35 | 54.84176 | 17.76414 | 18173 ft | 429 kts | 123° |
| 2026-04-27 19:35 | 54.82447 | 17.80582 | 17606 ft | 427 kts | 123° |
| 2026-04-27 19:36 | 54.80711 | 17.84758 | 17038 ft | 424 kts | 123° |
| 2026-04-27 19:36 | 54.79001 | 17.88863 | 16493 ft | 421 kts | 123° |
| 2026-04-27 19:36 | 54.77277 | 17.92996 | 15945 ft | 418 kts | 123° |
| 2026-04-27 19:36 | 54.75589 | 17.97035 | 15409 ft | 416 kts | 123° |
| 2026-04-27 19:37 | 54.73895 | 18.01084 | 14866 ft | 413 kts | 123° |
| 2026-04-27 19:37 | 54.72224 | 18.05071 | 14333 ft | 410 kts | 123° |
| 2026-04-27 19:37 | 54.70577 | 18.08992 | 13827 ft | 407 kts | 123° |
| 2026-04-27 19:37 | 54.68916 | 18.12946 | 13334 ft | 404 kts | 123° |
| 2026-04-27 19:38 | 54.67277 | 18.16835 | 12863 ft | 400 kts | 123° |
| 2026-04-27 19:38 | 54.65665 | 18.20656 | 12380 ft | 396 kts | 123° |
| 2026-04-27 19:38 | 54.64057 | 18.24463 | 11914 ft | 392 kts | 123° |
| 2026-04-27 19:38 | 54.62456 | 18.28247 | 11470 ft | 387 kts | 123° |
| 2026-04-27 19:39 | 54.60889 | 18.31944 | 11096 ft | 380 kts | 123° |
| 2026-04-27 19:39 | 54.59357 | 18.35547 | 10741 ft | 373 kts | 123° |
| 2026-04-27 19:39 | 54.57841 | 18.39112 | 10413 ft | 366 kts | 123° |
| 2026-04-27 19:39 | 54.56345 | 18.42629 | 10259 ft | 352 kts | 123° |
| 2026-04-27 19:40 | 54.54940 | 18.45921 | 10227 ft | 336 kts | 123° |
| 2026-04-27 19:40 | 54.53568 | 18.49135 | 9954 ft | 329 kts | 123° |
| 2026-04-27 19:40 | 54.52241 | 18.52240 | 9634 ft | 325 kts | 122° |
| 2026-04-27 19:40 | 54.50914 | 18.55343 | 9318 ft | 320 kts | 122° |
| 2026-04-27 19:41 | 54.49596 | 18.58424 | 8997 ft | 315 kts | 122° |
| 2026-04-27 19:41 | 54.48320 | 18.61398 | 8680 ft | 311 kts | 122° |
| 2026-04-27 19:41 | 54.47035 | 18.64392 | 8358 ft | 306 kts | 121° |
| 2026-04-27 19:41 | 54.45792 | 18.67284 | 8061 ft | 302 kts | 122° |
| 2026-04-27 19:42 | 54.44556 | 18.70155 | 7755 ft | 297 kts | 122° |
| 2026-04-27 19:42 | 54.43330 | 18.72999 | 7456 ft | 293 kts | 121° |
| 2026-04-27 19:42 | 54.42130 | 18.75787 | 7141 ft | 290 kts | 121° |
| 2026-04-27 19:42 | 54.40944 | 18.78533 | 6781 ft | 287 kts | 121° |
| 2026-04-27 19:43 | 54.39763 | 18.81265 | 6427 ft | 285 kts | 121° |
| 2026-04-27 19:43 | 54.38585 | 18.83992 | 6081 ft | 282 kts | 121° |
| 2026-04-27 19:43 | 54.37435 | 18.86647 | 5792 ft | 276 kts | 122° |
| 2026-04-27 19:43 | 54.36084 | 18.88950 | 5393 ft | 279 kts | 148° |
| 2026-04-27 19:44 | 54.34207 | 18.89743 | 4976 ft | 283 kts | 184° |
| 2026-04-27 19:44 | 54.32393 | 18.88719 | 4656 ft | 276 kts | 213° |
| 2026-04-27 19:44 | 54.30794 | 18.86974 | 4345 ft | 272 kts | 215° |
| 2026-04-27 19:44 | 54.29326 | 18.85009 | 4014 ft | 265 kts | 237° |
| 2026-04-27 19:45 | 54.28723 | 18.82259 | 3965 ft | 238 kts | 277° |
| 2026-04-27 19:45 | 54.29153 | 18.79692 | 3987 ft | 215 kts | 304° |
| 2026-04-27 19:45 | 54.29868 | 18.77521 | 3991 ft | 211 kts | 305° |
| 2026-04-27 19:45 | 54.30566 | 18.75301 | 3846 ft | 211 kts | 303° |
| 2026-04-27 19:46 | 54.31231 | 18.73030 | 3547 ft | 212 kts | 301° |
| 2026-04-27 19:46 | 54.31815 | 18.70792 | 3334 ft | 199 kts | 299° |
| 2026-04-27 19:46 | 54.32332 | 18.68679 | 3041 ft | 186 kts | 299° |
| 2026-04-27 19:46 | 54.32814 | 18.66691 | 2747 ft | 176 kts | 299° |
| 2026-04-27 19:47 | 54.33268 | 18.64826 | 2482 ft | 165 kts | 299° |
| 2026-04-27 19:47 | 54.33694 | 18.63087 | 2273 ft | 154 kts | 299° |
| 2026-04-27 19:47 | 54.34105 | 18.61418 | 2066 ft | 154 kts | 298° |
| 2026-04-27 19:47 | 54.34526 | 18.59714 | 1862 ft | 154 kts | 298° |
| 2026-04-27 19:48 | 54.34940 | 18.58036 | 1654 ft | 154 kts | 297° |
| 2026-04-27 19:48 | 54.35353 | 18.56325 | 1449 ft | 154 kts | 297° |
| 2026-04-27 19:48 | 54.35749 | 18.54722 | 1215 ft | 143 kts | 297° |
| 2026-04-27 19:48 | 54.36134 | 18.53163 | 1008 ft | 139 kts | 297° |
| 2026-04-27 19:49 | 54.36513 | 18.51640 | 838 ft | 139 kts | 296° |
| 2026-04-27 19:49 | 54.36889 | 18.50112 | 645 ft | 139 kts | 296° |
| 2026-04-27 19:49 | 54.37264 | 18.48596 | 492 ft | 138 kts | 296° |
| 2026-04-27 19:49 | 54.37603 | 18.47249 | 453 ft | 102 kts | 293° |
| 2026-04-27 19:50 | 54.37809 | 18.46402 | 449 ft | 52 kts | 293° |
| 2026-04-27 19:50 | 54.37909 | 18.46020 | 448 ft | 26 kts | 301° |
| 2026-04-27 19:50 | 54.38028 | 18.45794 | 448 ft | 24 kts | 324° |
| 2026-04-27 19:50 | 54.38059 | 18.45756 | 448 ft | 0 kts | 324° |
| 2026-04-27 19:51 | 54.38065 | 18.45748 | 448 ft | 1 kts | 324° |
| 2026-04-27 19:51 | 54.38076 | 18.45735 | 448 ft | 2 kts | 324° |
| 2026-04-27 19:51 | 54.38095 | 18.45711 | 448 ft | 4 kts | 326° |
| 2026-04-27 19:52 | 54.38135 | 18.45710 | 448 ft | 8 kts | 40° |
| 2026-04-27 19:52 | 54.38141 | 18.45780 | 448 ft | 10 kts | 108° |
| 2026-04-27 19:52 | 54.38100 | 18.45948 | 448 ft | 12 kts | 111° |
| 2026-04-27 19:52 | 54.38121 | 18.46069 | 449 ft | 11 kts | 19° |
| 2026-04-27 19:53 | 54.38150 | 18.46271 | 449 ft | 11 kts | 114° |
| 2026-04-27 19:53 | 54.38127 | 18.46323 | 449 ft | 4 kts | 172° |
| 2026-04-27 19:53 | 54.38096 | 18.46308 | 449 ft | 3 kts | 203° |
| 2026-04-27 19:54 | 54.38082 | 18.46298 | 449 ft | 0 kts | 204° |